createdAt,value
2019-02-05T00:00:12.910Z,65.94
2019-02-05T00:02:17.209Z,66.16
2019-02-05T00:04:21.274Z,66.32
2019-02-05T00:06:25.295Z,66.26
2019-02-05T00:08:31.469Z,66.20
2019-02-05T00:10:35.420Z,66.10
2019-02-05T00:12:39.364Z,66.11
2019-02-05T00:14:43.496Z,66.20
2019-02-05T00:16:49.332Z,66.23
2019-02-05T00:18:53.423Z,66.25
2019-02-05T00:20:57.511Z,66.34
2019-02-05T00:23:01.426Z,66.41
2019-02-05T00:25:05.772Z,66.39
2019-02-05T00:27:12.633Z,66.58
2019-02-05T00:29:19.627Z,66.91
2019-02-05T00:31:23.710Z,66.96
2019-02-05T00:33:27.815Z,67.02
2019-02-05T00:35:31.853Z,66.95
2019-02-05T00:37:36.415Z,67.04
2019-02-05T00:39:42.074Z,67.05
2019-02-05T00:41:46.030Z,67.08
2019-02-05T00:43:52.933Z,67.06
2019-02-05T00:45:57.014Z,67.05
2019-02-05T00:48:01.081Z,67.14
2019-02-05T00:50:06.390Z,67.17
2019-02-05T00:52:10.383Z,67.07
2019-02-05T00:54:14.382Z,67.10
2019-02-05T00:56:18.442Z,67.03
2019-02-05T00:58:25.354Z,66.97
2019-02-05T01:00:33.427Z,66.80
2019-02-05T01:02:37.515Z,66.64
2019-02-05T01:04:43.187Z,66.48
2019-02-05T01:06:47.535Z,66.46
2019-02-05T01:08:51.449Z,66.45
2019-02-05T01:10:55.380Z,66.34
2019-02-05T01:12:59.314Z,66.26
2019-02-05T01:15:03.765Z,66.24
2019-02-05T01:17:07.938Z,66.17
2019-02-05T01:19:11.944Z,66.19
2019-02-05T01:21:16.015Z,66.06
2019-02-05T01:23:21.488Z,65.96
2019-02-05T01:25:25.658Z,65.83
2019-02-05T01:27:29.918Z,65.86
2019-02-05T01:29:33.928Z,65.82
2019-02-05T01:31:39.027Z,65.85
2019-02-05T01:33:43.124Z,66.00
2019-02-05T01:35:47.277Z,66.06
2019-02-05T01:37:51.426Z,66.14
2019-02-05T01:39:55.881Z,66.20
2019-02-05T01:41:59.750Z,66.16
2019-02-05T01:44:03.840Z,66.32
2019-02-05T01:46:07.844Z,66.35
2019-02-05T01:48:15.281Z,66.38
2019-02-05T01:50:26.705Z,66.44
2019-02-05T01:52:30.830Z,66.44
2019-02-05T01:54:34.744Z,66.41
2019-02-05T01:56:40.750Z,66.37
2019-02-05T01:58:44.436Z,66.33
2019-02-05T02:00:48.831Z,66.28
2019-02-05T02:02:52.757Z,66.22
2019-02-05T02:04:56.529Z,66.17
2019-02-05T02:07:00.469Z,66.18
2019-02-05T02:09:07.930Z,66.34
2019-02-05T02:11:11.966Z,66.51
2019-02-05T02:13:18.837Z,66.68
2019-02-05T02:15:22.907Z,66.85
2019-02-05T02:17:26.827Z,66.94
2019-02-05T02:19:30.949Z,66.92
2019-02-05T02:21:36.540Z,66.95
2019-02-05T02:23:40.720Z,66.94
2019-02-05T02:25:47.314Z,66.97
2019-02-05T02:27:51.617Z,67.04
2019-02-05T02:29:55.399Z,67.08
2019-02-05T02:31:59.255Z,67.10
2019-02-05T02:34:03.404Z,67.05
2019-02-05T02:36:07.368Z,66.98
2019-02-05T02:38:11.422Z,67.03
2019-02-05T02:40:15.685Z,66.99
2019-02-05T02:42:20.699Z,66.93
2019-02-05T02:44:24.794Z,66.79
2019-02-05T02:46:28.790Z,66.76
2019-02-05T02:48:33.797Z,66.80
2019-02-05T02:50:37.844Z,66.92
2019-02-05T02:52:41.874Z,66.96
2019-02-05T02:54:45.724Z,67.07
2019-02-05T02:56:49.747Z,67.06
2019-02-05T02:58:53.745Z,67.29
2019-02-05T03:00:58.667Z,67.35
2019-02-05T03:03:03.796Z,67.59
2019-02-05T03:05:10.476Z,67.72
2019-02-05T03:07:14.405Z,67.84
2019-02-05T03:09:18.494Z,68.08
2019-02-05T03:11:22.414Z,68.33
2019-02-05T03:13:26.405Z,68.59
2019-02-05T03:15:30.536Z,68.82
2019-02-05T03:17:34.672Z,68.74
2019-02-05T03:19:38.702Z,68.59
2019-02-05T03:21:42.694Z,68.43
2019-02-05T03:23:46.689Z,68.44
2019-02-05T03:25:50.658Z,68.42
2019-02-05T03:27:54.739Z,68.41
2019-02-05T03:29:59.783Z,68.39
2019-02-05T03:32:06.045Z,68.47
2019-02-05T03:34:10.011Z,68.42
2019-02-05T03:36:14.009Z,68.69
2019-02-05T03:38:19.125Z,68.92
2019-02-05T03:41:09.044Z,68.91
2019-02-05T03:43:13.013Z,68.94
2019-02-05T03:45:16.975Z,69.18
2019-02-05T03:47:21.061Z,68.95
2019-02-05T03:49:24.978Z,68.92
2019-02-05T03:52:08.682Z,68.86
2019-02-05T03:54:44.534Z,68.74
2019-02-05T03:56:59.451Z,68.44
2019-02-05T03:59:32.706Z,68.44
2019-02-05T04:02:35.930Z,68.18
2019-02-05T04:05:11.640Z,68.11
2019-02-05T04:07:51.225Z,68.00
2019-02-05T04:10:50.466Z,67.95
2019-02-05T04:13:38.995Z,67.81
2019-02-05T04:15:57.878Z,67.87
2019-02-05T04:18:21.820Z,68.21
2019-02-05T04:21:15.946Z,68.42
2019-02-05T04:24:03.830Z,68.79
2019-02-05T04:26:26.855Z,69.22
2019-02-05T04:29:14.842Z,69.77
2019-02-05T04:31:45.707Z,70.23
2019-02-05T04:34:20.427Z,71.01
2019-02-05T04:37:03.181Z,71.38
2019-02-05T04:39:47.714Z,71.57
2019-02-05T04:42:15.575Z,71.41
2019-02-05T04:45:04.271Z,71.32
2019-02-05T04:47:31.248Z,71.79
2019-02-05T04:50:15.004Z,71.85
2019-02-05T04:53:04.478Z,72.06
2019-02-05T04:55:39.449Z,71.78
2019-02-05T04:58:31.408Z,71.75
2019-02-05T05:01:05.280Z,71.97
2019-02-05T05:03:42.086Z,71.69
2019-02-05T05:06:12.847Z,71.63
2019-02-05T05:08:58.531Z,71.62
2019-02-05T05:11:02.373Z,71.91
2019-02-05T05:13:06.595Z,71.77
2019-02-05T05:15:12.948Z,71.77
2019-02-05T05:17:16.763Z,71.93
2019-02-05T05:19:20.708Z,71.79
2019-02-05T05:21:24.777Z,71.78
2019-02-05T05:23:29.173Z,71.71
2019-02-05T05:25:33.458Z,71.74
2019-02-05T05:27:37.265Z,71.66
2019-02-05T05:29:41.185Z,71.68
2019-02-05T05:31:45.190Z,71.62
2019-02-05T05:33:49.157Z,71.46
2019-02-05T05:35:53.283Z,71.28
2019-02-05T05:37:57.583Z,71.28
2019-02-05T05:40:03.358Z,71.19
2019-02-05T05:42:07.554Z,71.22
2019-02-05T05:44:11.715Z,71.41
2019-02-05T05:46:15.850Z,71.43
2019-02-05T05:48:19.754Z,71.49
2019-02-05T05:50:23.670Z,71.61
2019-02-05T05:52:28.244Z,71.44
2019-02-05T05:54:33.673Z,71.38
2019-02-05T05:56:39.771Z,71.32
2019-02-05T05:58:44.436Z,71.39
2019-02-05T06:00:48.377Z,71.32
2019-02-05T06:02:52.619Z,71.60
2019-02-05T06:04:56.743Z,72.09
2019-02-05T06:07:00.723Z,71.69
2019-02-05T06:09:07.987Z,71.16
2019-02-05T06:11:12.036Z,70.71
2019-02-05T06:13:16.428Z,70.57
2019-02-05T06:15:20.480Z,70.54
2019-02-05T06:17:24.316Z,70.54
2019-02-05T06:19:28.353Z,70.49
2019-02-05T06:21:32.267Z,70.57
2019-02-05T06:23:36.935Z,70.63
2019-02-05T06:25:40.887Z,70.67
2019-02-05T06:27:44.769Z,70.70
2019-02-05T06:29:48.850Z,70.86
2019-02-05T06:31:53.191Z,70.78
2019-02-05T06:33:57.303Z,70.92
2019-02-05T06:36:01.229Z,71.02
2019-02-05T06:38:05.243Z,70.98
2019-02-05T06:40:10.121Z,71.04
2019-02-05T06:42:14.021Z,71.29
2019-02-05T06:44:17.889Z,71.44
2019-02-05T06:46:21.907Z,71.72
2019-02-05T06:48:25.940Z,71.74
2019-02-05T06:50:29.927Z,71.65
2019-02-05T06:52:33.909Z,71.59
2019-02-05T06:54:38.020Z,71.60
2019-02-05T06:56:42.557Z,71.73
2019-02-05T06:58:46.857Z,71.99
2019-02-05T07:00:52.857Z,71.79
2019-02-05T07:02:56.777Z,71.90
2019-02-05T07:05:03.388Z,71.66
2019-02-05T07:07:07.299Z,71.47
2019-02-05T07:09:11.361Z,71.41
2019-02-05T07:11:15.538Z,71.33
2019-02-05T07:13:19.452Z,71.22
2019-02-05T07:15:23.488Z,71.11
2019-02-05T07:17:27.465Z,71.10
2019-02-05T07:19:31.635Z,71.07
2019-02-05T07:21:35.764Z,71.15
2019-02-05T07:23:40.187Z,71.16
2019-02-05T07:25:45.204Z,71.24
2019-02-05T07:27:49.245Z,71.12
2019-02-05T07:29:54.342Z,71.02
2019-02-05T07:31:58.267Z,70.95
2019-02-05T07:34:02.687Z,70.88
2019-02-05T07:36:07.663Z,70.79
2019-02-05T07:38:11.732Z,70.71
2019-02-05T07:40:16.901Z,70.66
2019-02-05T07:42:21.066Z,70.63
2019-02-05T07:44:25.115Z,70.59
2019-02-05T07:46:30.792Z,70.43
2019-02-05T07:48:34.648Z,70.40
2019-02-05T07:50:38.581Z,70.28
2019-02-05T07:52:44.917Z,70.25
2019-02-05T07:54:49.017Z,70.19
2019-02-05T07:56:54.818Z,70.21
2019-02-05T07:59:09.630Z,70.19
2019-02-05T08:01:04.528Z,70.23
2019-02-05T08:03:08.812Z,70.19
2019-02-05T08:05:15.937Z,70.19
2019-02-05T08:07:19.987Z,70.27
2019-02-05T08:09:23.893Z,70.33
2019-02-05T08:11:27.884Z,70.36
2019-02-05T08:13:32.192Z,70.38
2019-02-05T08:15:36.204Z,70.32
2019-02-05T08:17:40.211Z,70.41
2019-02-05T08:19:44.215Z,70.34
2019-02-05T08:21:48.553Z,70.45
2019-02-05T08:23:52.843Z,70.38
2019-02-05T08:25:56.915Z,70.35
2019-02-05T08:28:01.539Z,70.34
2019-02-05T08:30:09.930Z,70.52
2019-02-05T08:32:14.264Z,70.48
2019-02-05T08:34:18.145Z,70.30
2019-02-05T08:36:22.271Z,70.38
2019-02-05T08:38:26.108Z,70.37
2019-02-05T08:40:30.166Z,70.41
2019-02-05T08:42:34.124Z,70.23
2019-02-05T08:44:38.195Z,70.28
2019-02-05T08:46:42.022Z,70.25
2019-02-05T08:48:46.081Z,70.09
2019-02-05T08:50:52.281Z,70.09
2019-02-05T08:52:57.201Z,70.20
2019-02-05T08:55:02.639Z,70.12
2019-02-05T08:57:06.563Z,70.06
2019-02-05T08:59:10.433Z,70.02
2019-02-05T09:01:14.710Z,69.97
2019-02-05T09:03:18.881Z,69.53
2019-02-05T09:05:22.860Z,69.38
2019-02-05T09:07:26.826Z,69.17
2019-02-05T09:09:31.386Z,68.78
2019-02-05T09:11:35.619Z,68.76
2019-02-05T09:13:39.611Z,68.60
2019-02-05T09:15:43.549Z,68.55
2019-02-05T09:17:47.583Z,68.39
2019-02-05T09:19:51.588Z,68.29
2019-02-05T09:21:55.650Z,68.18
2019-02-05T09:23:59.512Z,68.06
2019-02-05T09:26:03.589Z,67.91
2019-02-05T09:28:07.607Z,67.68
2019-02-05T09:30:17.459Z,67.64
2019-02-05T09:32:22.904Z,67.52
2019-02-05T09:34:26.711Z,67.49
2019-02-05T09:36:30.799Z,67.32
2019-02-05T09:38:34.655Z,67.23
2019-02-05T09:40:38.796Z,66.93
2019-02-05T09:42:42.679Z,66.48
2019-02-05T09:44:46.745Z,66.43
2019-02-05T09:46:50.797Z,65.87
2019-02-05T09:48:54.736Z,65.93
2019-02-05T09:50:59.022Z,65.67
2019-02-05T09:53:04.029Z,65.61
2019-02-05T09:55:08.818Z,65.44
2019-02-05T09:57:13.033Z,65.22
2019-02-05T09:59:17.553Z,64.93
2019-02-05T10:01:21.846Z,64.77
2019-02-05T10:03:25.868Z,64.67
2019-02-05T10:05:30.471Z,64.38
2019-02-05T10:07:35.568Z,64.53
2019-02-05T10:09:42.440Z,64.38
2019-02-05T10:11:47.838Z,64.09
2019-02-05T10:13:51.874Z,64.35
2019-02-05T10:15:55.776Z,63.92
2019-02-05T10:17:59.725Z,63.73
2019-02-05T10:20:03.932Z,63.39
2019-02-05T10:22:09.324Z,63.01
2019-02-05T10:24:13.343Z,63.05
2019-02-05T10:26:17.599Z,63.09
2019-02-05T10:28:21.727Z,62.96
2019-02-05T10:30:35.273Z,63.00
2019-02-05T10:32:39.699Z,62.87
2019-02-05T10:34:43.572Z,62.05
2019-02-05T10:36:47.650Z,61.32
2019-02-05T10:38:51.671Z,61.29
2019-02-05T10:40:55.658Z,60.98
2019-02-05T10:43:00.407Z,59.84
2019-02-05T10:45:05.640Z,59.12
2019-02-05T10:47:09.559Z,58.17
2019-02-05T10:49:14.075Z,57.35
2019-02-05T10:51:17.975Z,56.40
2019-02-05T10:53:21.960Z,54.67
2019-02-05T10:55:25.974Z,53.70
2019-02-05T10:57:29.824Z,52.57
2019-02-05T10:59:35.710Z,52.06
2019-02-05T11:01:40.839Z,51.86
2019-02-05T11:03:44.708Z,52.77
2019-02-05T11:05:48.897Z,52.43
2019-02-05T11:07:53.054Z,52.09
2019-02-05T11:09:57.020Z,51.43
2019-02-05T11:12:03.222Z,50.45
2019-02-05T11:14:09.590Z,48.76
2019-02-05T11:16:13.478Z,48.58
2019-02-05T11:18:17.765Z,48.76
2019-02-05T11:20:23.494Z,48.66
2019-02-05T11:22:30.224Z,48.34
2019-02-05T11:24:38.331Z,49.44
2019-02-05T11:26:42.307Z,49.58
2019-02-05T11:28:46.343Z,49.52
2019-02-05T11:30:50.370Z,48.96
2019-02-05T11:32:54.496Z,48.86
2019-02-05T11:35:01.173Z,48.59
2019-02-05T11:37:06.222Z,49.71
2019-02-05T11:39:15.113Z,50.78
2019-02-05T11:41:19.008Z,50.16
2019-02-05T11:43:22.980Z,48.33
2019-02-05T11:45:26.870Z,47.38
2019-02-05T11:47:30.946Z,47.37
2019-02-05T11:49:34.872Z,46.81
2019-02-05T11:51:38.946Z,46.76
2019-02-05T11:53:42.934Z,46.06
2019-02-05T11:55:46.880Z,45.87
2019-02-05T11:57:50.806Z,45.93
2019-02-05T11:59:54.648Z,46.75
2019-02-05T12:01:59.754Z,47.25
2019-02-05T12:04:04.554Z,47.17
2019-02-05T12:06:08.574Z,47.33
2019-02-05T12:08:14.248Z,47.84
2019-02-05T12:10:20.431Z,48.12
2019-02-05T12:12:26.360Z,48.95
2019-02-05T12:14:39.568Z,49.54
2019-02-05T12:16:43.536Z,50.29
2019-02-05T12:18:47.438Z,50.93
2019-02-05T12:20:51.549Z,51.41
2019-02-05T12:22:55.445Z,51.87
2019-02-05T12:24:59.671Z,52.27
2019-02-05T12:27:03.621Z,52.28
2019-02-05T12:29:08.683Z,52.56
2019-02-05T12:31:12.719Z,52.95
2019-02-05T12:33:16.786Z,53.24
2019-02-05T12:35:23.768Z,53.59
2019-02-05T12:37:30.678Z,53.92
2019-02-05T12:39:34.677Z,54.07
2019-02-05T12:41:41.227Z,54.30
2019-02-05T12:43:45.142Z,54.49
2019-02-05T12:45:50.345Z,54.72
2019-02-05T12:47:54.960Z,54.83
2019-02-05T12:50:00.764Z,55.08
2019-02-05T12:52:04.640Z,54.99
2019-02-05T12:54:08.758Z,54.88
2019-02-05T12:56:12.881Z,54.63
2019-02-05T12:58:17.341Z,54.38
2019-02-05T13:00:28.545Z,54.47
2019-02-05T13:02:32.622Z,54.69
2019-02-05T13:04:36.966Z,54.81
2019-02-05T13:06:40.980Z,54.74
2019-02-05T13:08:46.333Z,54.60
2019-02-05T13:10:53.005Z,54.25
2019-02-05T13:12:56.923Z,53.77
2019-02-05T13:15:00.914Z,54.05
2019-02-05T13:17:05.042Z,54.38
2019-02-05T13:19:09.104Z,54.68
2019-02-05T13:21:13.184Z,54.74
2019-02-05T13:23:17.115Z,55.07
2019-02-05T13:25:22.804Z,55.37
2019-02-05T13:27:26.798Z,55.67
2019-02-05T13:29:30.761Z,55.74
2019-02-05T13:31:34.766Z,55.99
2019-02-05T13:33:38.793Z,56.00
2019-02-05T13:35:44.362Z,56.19
2019-02-05T13:37:50.214Z,56.29
2019-02-05T13:39:54.839Z,56.36
2019-02-05T13:41:59.308Z,56.49
2019-02-05T13:44:03.551Z,56.57
2019-02-05T13:46:07.933Z,56.69
2019-02-05T13:48:11.912Z,56.82
2019-02-05T13:50:32.122Z,56.89
2019-02-05T13:52:26.694Z,56.95
2019-02-05T13:54:30.725Z,56.97
2019-02-05T13:56:34.683Z,57.12
2019-02-05T13:58:39.024Z,57.46
2019-02-05T14:00:50.867Z,57.42
2019-02-05T14:02:54.905Z,57.53
2019-02-05T14:05:00.426Z,57.65
2019-02-05T14:07:04.618Z,57.58
2019-02-05T14:09:12.872Z,57.50
2019-02-05T14:11:16.709Z,57.58
2019-02-05T14:13:20.723Z,57.63
2019-02-05T14:15:26.719Z,57.55
2019-02-05T14:17:30.566Z,57.74
2019-02-05T14:19:35.644Z,57.81
2019-02-05T14:21:39.659Z,57.81
2019-02-05T14:23:43.721Z,57.98
2019-02-05T14:25:47.961Z,58.13
2019-02-05T14:27:52.008Z,58.31
2019-02-05T14:29:56.071Z,58.22
2019-02-05T14:32:00.093Z,58.17
2019-02-05T14:34:04.495Z,58.35
2019-02-05T14:36:09.920Z,58.33
2019-02-05T14:38:14.004Z,58.28
2019-02-05T14:40:18.760Z,58.38
2019-02-05T14:42:22.787Z,58.62
2019-02-05T14:44:30.876Z,58.49
2019-02-05T14:46:34.929Z,58.62
2019-02-05T14:48:40.191Z,58.70
2019-02-05T14:50:45.454Z,58.65
2019-02-05T14:52:50.670Z,58.65
2019-02-05T14:54:57.648Z,58.71
2019-02-05T14:57:01.606Z,58.77
2019-02-05T14:59:06.668Z,58.81
2019-02-05T15:01:10.694Z,58.73
2019-02-05T15:03:15.197Z,58.48
2019-02-05T15:05:19.360Z,58.25
2019-02-05T15:07:23.294Z,58.29
2019-02-05T15:09:30.966Z,58.00
2019-02-05T15:11:36.113Z,57.99
2019-02-05T15:13:40.051Z,57.93
2019-02-05T15:15:44.077Z,58.13
2019-02-05T15:17:48.103Z,58.10
2019-02-05T15:19:52.068Z,58.17
2019-02-05T15:21:55.918Z,58.38
2019-02-05T15:23:59.749Z,58.30
2019-02-05T15:26:03.808Z,58.32
2019-02-05T15:28:07.748Z,58.50
2019-02-05T15:30:24.253Z,58.74
2019-02-05T15:32:47.325Z,59.02
2019-02-05T15:34:53.309Z,59.28
2019-02-05T15:36:58.614Z,59.40
2019-02-05T15:39:04.047Z,59.64
2019-02-05T15:41:08.030Z,59.83
2019-02-05T15:43:12.408Z,60.02
2019-02-05T15:45:18.141Z,60.23
2019-02-05T15:47:22.741Z,60.41
2019-02-05T15:49:27.225Z,60.54
2019-02-05T15:51:31.271Z,60.81
2019-02-05T15:53:35.160Z,60.89
2019-02-05T15:55:39.353Z,61.20
2019-02-05T15:57:43.518Z,61.58
2019-02-05T15:59:49.051Z,61.75
2019-02-05T16:02:05.676Z,61.88
2019-02-05T16:03:59.419Z,62.08
2019-02-05T16:06:03.666Z,62.35
2019-02-05T16:08:08.730Z,62.50
2019-02-05T16:10:14.189Z,62.59
2019-02-05T16:12:18.914Z,62.76
2019-02-05T16:14:23.302Z,63.07
2019-02-05T16:16:28.181Z,63.27
2019-02-05T16:18:32.308Z,63.50
2019-02-05T16:20:36.787Z,63.54
2019-02-05T16:22:40.890Z,63.69
2019-02-05T16:24:47.887Z,64.01
2019-02-05T16:26:53.107Z,64.01
2019-02-05T16:28:57.051Z,63.99
2019-02-05T16:31:01.089Z,64.11
2019-02-05T16:33:05.101Z,64.35
2019-02-05T16:35:12.964Z,64.51
2019-02-05T16:37:16.881Z,64.62
2019-02-05T16:39:22.393Z,65.19
2019-02-05T16:41:26.358Z,65.07
2019-02-05T16:43:30.356Z,65.13
2019-02-05T16:45:34.398Z,65.41
2019-02-05T16:47:38.406Z,65.53
2019-02-05T16:49:44.006Z,65.52
2019-02-05T16:51:48.024Z,65.70
2019-02-05T16:53:51.973Z,65.81
2019-02-05T16:55:56.058Z,65.95
2019-02-05T16:58:00.587Z,65.99
2019-02-05T17:00:07.422Z,66.16
2019-02-05T17:02:11.462Z,65.98
2019-02-05T17:04:15.731Z,66.08
2019-02-05T17:06:19.751Z,66.04
2019-02-05T17:08:24.436Z,66.10
2019-02-05T17:10:28.500Z,66.11
2019-02-05T17:12:32.603Z,66.08
2019-02-05T17:14:37.217Z,66.20
2019-02-05T17:16:41.418Z,66.54
2019-02-05T17:18:45.703Z,66.96
2019-02-05T17:20:50.798Z,66.77
2019-02-05T17:22:54.810Z,66.82
2019-02-05T17:25:01.481Z,66.85
2019-02-05T17:27:08.096Z,66.61
2019-02-05T17:29:11.869Z,66.43
2019-02-05T17:31:16.064Z,66.61
2019-02-05T17:33:22.219Z,66.80
2019-02-05T17:35:26.256Z,67.35
2019-02-05T17:37:31.391Z,67.52
2019-02-05T17:39:35.551Z,67.58
2019-02-05T17:41:40.631Z,67.74
2019-02-05T17:43:44.782Z,67.68
2019-02-05T17:45:48.946Z,67.67
2019-02-05T17:47:54.755Z,67.55
2019-02-05T17:50:00.062Z,67.45
2019-02-05T17:52:04.755Z,67.28
2019-02-05T17:54:09.018Z,67.42
2019-02-05T17:56:14.994Z,67.43
2019-02-05T17:58:19.605Z,67.38
2019-02-05T18:00:39.475Z,67.48
2019-02-05T18:02:51.428Z,67.83
2019-02-05T18:04:49.513Z,67.93
2019-02-05T18:06:53.730Z,68.07
2019-02-05T18:08:57.764Z,68.31
2019-02-05T18:11:03.444Z,68.14
2019-02-05T18:13:08.205Z,68.37
2019-02-05T18:15:19.578Z,68.38
2019-02-05T18:17:23.609Z,68.38
2019-02-05T18:19:29.557Z,68.39
2019-02-05T18:21:34.052Z,68.28
2019-02-05T18:23:38.302Z,67.99
2019-02-05T18:25:43.131Z,67.99
2019-02-05T18:27:49.381Z,68.30
2019-02-05T18:29:54.051Z,68.58
2019-02-05T18:31:58.299Z,68.84
2019-02-05T18:34:02.855Z,68.85
2019-02-05T18:36:07.137Z,68.87
2019-02-05T18:38:13.298Z,68.73
2019-02-05T18:40:18.407Z,68.62
2019-02-05T18:42:22.451Z,68.61
2019-02-05T18:44:26.851Z,68.57
2019-02-05T18:46:31.034Z,68.74
2019-02-05T18:48:36.456Z,69.06
2019-02-05T18:50:40.721Z,69.06
2019-02-05T18:52:45.916Z,69.12
2019-02-05T18:54:50.007Z,69.10
2019-02-05T18:56:56.243Z,69.26
2019-02-05T18:59:00.196Z,69.20
2019-02-05T19:01:04.973Z,69.59
2019-02-05T19:03:15.683Z,69.74
2019-02-05T19:05:14.883Z,69.78
2019-02-05T19:07:19.165Z,69.73
2019-02-05T19:09:23.257Z,69.89
2019-02-05T19:11:27.562Z,69.75
2019-02-05T19:13:32.621Z,70.02
2019-02-05T19:15:37.413Z,70.21
2019-02-05T19:17:41.871Z,70.01
2019-02-05T19:19:46.896Z,70.03
2019-02-05T19:21:52.631Z,70.08
2019-02-05T19:24:04.680Z,70.29
2019-02-05T19:26:19.463Z,70.36
2019-02-05T19:28:32.563Z,70.26
2019-02-05T19:30:38.699Z,70.37
2019-02-05T19:32:42.934Z,70.72
2019-02-05T19:34:47.921Z,70.60
2019-02-05T19:36:52.102Z,70.50
2019-02-05T19:38:56.540Z,70.58
2019-02-05T19:41:00.842Z,70.62
2019-02-05T19:43:05.102Z,70.71
2019-02-05T19:45:21.367Z,70.83
2019-02-05T19:47:29.940Z,71.10
2019-02-05T19:49:38.740Z,70.78
2019-02-05T19:51:42.863Z,70.81
2019-02-05T19:53:47.193Z,71.08
2019-02-05T19:55:51.462Z,71.01
2019-02-05T19:57:59.231Z,70.99
2019-02-05T20:00:03.286Z,71.01
2019-02-05T20:02:09.651Z,71.19
2019-02-05T20:04:13.621Z,71.29
2019-02-05T20:06:17.978Z,71.22
2019-02-05T20:08:21.853Z,71.28
2019-02-05T20:10:25.935Z,71.42
2019-02-05T20:12:29.919Z,71.47
2019-02-05T20:14:34.246Z,71.53
2019-02-05T20:16:40.109Z,71.51
2019-02-05T20:18:46.373Z,71.62
2019-02-05T20:20:52.909Z,71.78
2019-02-05T20:22:56.824Z,71.78
2019-02-05T20:25:01.971Z,71.83
2019-02-05T20:27:06.141Z,71.99
2019-02-05T20:29:13.318Z,71.97
2019-02-05T20:31:17.309Z,71.83
2019-02-05T20:33:21.379Z,71.97
2019-02-05T20:35:25.375Z,71.96
2019-02-05T20:37:31.281Z,72.18
2019-02-05T20:39:35.395Z,71.98
2019-02-05T20:41:39.422Z,72.01
2019-02-05T20:43:44.545Z,72.13
2019-02-05T20:45:49.009Z,72.05
2019-02-05T20:48:17.106Z,72.02
2019-02-05T20:50:37.804Z,72.19
2019-02-05T20:52:50.557Z,72.24
2019-02-05T20:55:01.724Z,72.12
2019-02-05T20:59:32.278Z,72.16
2019-02-05T21:01:32.137Z,72.03
2019-02-05T21:03:36.139Z,71.97
2019-02-05T21:05:43.012Z,72.02
2019-02-05T21:07:47.049Z,71.98
2019-02-05T21:09:51.319Z,71.91
2019-02-05T21:11:55.325Z,71.81
2019-02-05T21:13:59.300Z,71.71
2019-02-05T21:16:03.535Z,71.55
2019-02-05T21:18:10.028Z,71.64
2019-02-05T21:20:28.414Z,71.67
2019-02-05T21:22:22.386Z,71.75
2019-02-05T21:24:26.360Z,71.65
2019-02-05T21:26:30.413Z,71.71
2019-02-05T21:28:34.513Z,71.97
2019-02-05T21:30:39.002Z,72.07
2019-02-05T21:32:43.018Z,72.46
2019-02-05T21:34:47.041Z,72.45
2019-02-05T21:36:51.210Z,72.52
2019-02-05T21:38:55.336Z,72.45
2019-02-05T21:40:59.565Z,72.61
2019-02-05T21:43:03.755Z,72.69
2019-02-05T21:45:10.327Z,72.68
2019-02-05T21:47:14.245Z,72.95
2019-02-05T21:49:18.383Z,72.91
2019-02-05T21:51:25.103Z,73.25
2019-02-05T21:53:29.027Z,73.06
2019-02-05T21:55:33.068Z,73.21
2019-02-05T21:57:37.292Z,73.23
2019-02-05T21:59:43.103Z,72.99
2019-02-05T22:01:47.171Z,73.39
2019-02-05T22:03:51.174Z,73.29
2019-02-05T22:05:55.109Z,73.35
2019-02-05T22:07:59.026Z,73.18
2019-02-05T22:10:02.972Z,73.32
2019-02-05T22:12:07.475Z,73.54
2019-02-05T22:14:13.568Z,73.49
2019-02-05T22:16:19.741Z,73.67
2019-02-05T22:18:26.422Z,73.64
2019-02-05T22:20:30.518Z,73.54
2019-02-05T22:22:34.469Z,73.47
2019-02-05T22:24:38.617Z,73.64
2019-02-05T22:26:42.851Z,73.62
2019-02-05T22:28:46.837Z,73.43
2019-02-05T22:30:55.403Z,73.40
2019-02-05T22:32:56.350Z,73.40
2019-02-05T22:35:01.567Z,73.40
2019-02-05T22:37:05.482Z,73.26
2019-02-05T22:39:10.272Z,73.26
2019-02-05T22:41:14.304Z,73.44
2019-02-05T22:43:18.131Z,73.44
2019-02-05T22:45:22.925Z,73.48
2019-02-05T22:47:28.986Z,73.56
2019-02-05T22:49:32.865Z,73.84
2019-02-05T22:51:37.112Z,73.91
2019-02-05T22:53:41.037Z,74.01
2019-02-05T22:55:44.959Z,74.01
2019-02-05T22:57:51.826Z,74.17
2019-02-05T22:59:56.950Z,74.34
2019-02-05T23:02:01.689Z,74.45
2019-02-05T23:04:30.356Z,74.63
2019-02-05T23:06:52.811Z,74.74
2019-02-05T23:08:58.603Z,74.80
2019-02-05T23:11:50.199Z,74.93
2019-02-05T23:13:54.102Z,74.95
2019-02-05T23:15:59.004Z,74.95
2019-02-05T23:18:03.171Z,74.96
2019-02-05T23:20:09.494Z,74.89
2019-02-05T23:22:14.266Z,74.79
2019-02-05T23:24:18.254Z,74.77
2019-02-05T23:26:26.871Z,74.66
2019-02-05T23:28:30.902Z,74.67
2019-02-05T23:30:35.726Z,74.62
2019-02-05T23:32:40.628Z,74.49
2019-02-05T23:34:44.581Z,74.40
2019-02-05T23:36:49.641Z,74.33
2019-02-05T23:38:53.777Z,74.20
2019-02-05T23:40:58.215Z,74.33
2019-02-05T23:43:02.367Z,74.34
2019-02-05T23:45:06.880Z,74.53
2019-02-05T23:47:10.930Z,74.69
2019-02-05T23:49:14.748Z,74.97
2019-02-05T23:51:20.154Z,75.01
2019-02-05T23:53:24.294Z,74.99
2019-02-05T23:55:28.293Z,75.12
2019-02-05T23:57:33.073Z,74.90
2019-02-05T23:59:37.139Z,75.12
